Time;durP1;ratioP1;P1;durP2;ratioP2;P2;SDS_P1;SDS_P2;PMS_P1;PMS_P2;Temp;Humidity;BMP_temperature;BMP_pressure;BME280_temperature;BME280_humidity;BME280_pressure;Samples;Min_cycle;Max_cycle;Signal;HPM_P1;HPM_P2
2022/07/26 00:00:57;;;;;;;14.23;8.68;;;;;;;;;;5031904;28;20125;-84
2022/07/26 00:03:23;;;;;;;10.40;8.23;;;;;;;;;;5032351;28;20048;-84
2022/07/26 00:05:49;;;;;;;10.48;8.05;;;;;;;;;;5031970;28;20111;-85
2022/07/26 00:08:15;;;;;;;10.98;8.05;;;;;;;;;;5032115;28;20037;-79
2022/07/26 00:10:45;;;;;;;12.25;7.82;;;;;;;;;;5035462;28;20564;-83
2022/07/26 00:13:11;;;;;;;10.40;7.97;;;;;;;;;;5035847;28;20060;-82
2022/07/26 00:15:38;;;;;;;12.02;8.13;;;;;;;;;;5035622;28;20026;-84
2022/07/26 00:18:04;;;;;;;13.45;8.38;;;;;;;;;;5035570;28;20076;-84
2022/07/26 00:20:30;;;;;;;13.43;9.25;;;;;;;;;;5042308;28;20040;-84
2022/07/26 00:22:56;;;;;;;11.05;8.48;;;;;;;;;;5055451;28;20036;-83
2022/07/26 00:25:22;;;;;;;16.40;8.73;;;;;;;;;;5051375;28;20029;-83
2022/07/26 00:27:48;;;;;;;9.85;8.43;;;;;;;;;;5037341;28;20613;-84
2022/07/26 00:30:14;;;;;;;14.52;8.82;;;;;;;;;;5035168;28;20037;-84
2022/07/26 00:32:40;;;;;;;11.32;7.97;;;;;;;;;;5035307;28;20037;-84
2022/07/26 00:35:07;;;;;;;11.57;8.30;;;;;;;;;;5034271;28;20045;-84
2022/07/26 00:37:33;;;;;;;19.08;8.43;;;;;;;;;;5035201;28;20033;-84
2022/07/26 00:39:59;;;;;;;13.93;8.80;;;;;;;;;;5033328;28;20408;-84
2022/07/26 00:42:25;;;;;;;12.15;9.27;;;;;;;;;;5034732;28;20039;-83
2022/07/26 00:44:51;;;;;;;11.65;8.68;;;;;;;;;;5035136;28;20041;-84
2022/07/26 00:47:17;;;;;;;13.23;8.57;;;;;;;;;;5034996;28;20037;-83
2022/07/26 00:49:43;;;;;;;11.43;9.05;;;;;;;;;;5034867;28;20107;-84
2022/07/26 00:52:10;;;;;;;13.85;9.45;;;;;;;;;;5034756;28;20033;-85
2022/07/26 00:54:37;;;;;;;15.00;9.23;;;;;;;;;;5033741;28;20029;-85
2022/07/26 00:57:03;;;;;;;12.48;9.30;;;;;;;;;;5034583;28;20034;-86
2022/07/26 00:59:29;;;;;;;12.25;9.65;;;;;;;;;;5035387;28;20491;-85
2022/07/26 01:01:56;;;;;;;13.73;9.00;;;;;;;;;;5034544;28;20045;-86
2022/07/26 01:04:22;;;;;;;13.25;8.52;;;;;;;;;;5034675;28;20029;-73
2022/07/26 01:06:48;;;;;;;16.63;8.57;;;;;;;;;;5033560;28;20094;-86
2022/07/26 01:09:15;;;;;;;12.68;8.75;;;;;;;;;;5034391;28;20066;-84
2022/07/26 01:11:42;;;;;;;14.23;9.25;;;;;;;;;;5034843;28;20029;-78
2022/07/26 01:14:08;;;;;;;11.25;8.18;;;;;;;;;;5034729;28;20048;-86
2022/07/26 01:16:34;;;;;;;14.65;9.55;;;;;;;;;;5034921;28;20025;-84
2022/07/26 01:19:00;;;;;;;15.60;8.75;;;;;;;;;;5034612;28;20052;-84
2022/07/26 01:21:30;;;;;;;15.27;9.13;;;;;;;;;;5033432;28;20072;-84
2022/07/26 01:23:57;;;;;;;18.23;10.27;;;;;;;;;;5034540;28;20057;-85
2022/07/26 01:26:22;;;;;;;18.58;9.98;;;;;;;;;;5034665;28;20104;-83
2022/07/26 01:28:49;;;;;;;14.63;10.45;;;;;;;;;;5034493;28;20037;-84
2022/07/26 01:31:15;;;;;;;18.95;9.57;;;;;;;;;;5033920;28;20099;-85
2022/07/26 01:33:41;;;;;;;13.93;9.32;;;;;;;;;;5034154;28;20400;-86
2022/07/26 01:36:08;;;;;;;13.95;9.52;;;;;;;;;;5034251;28;20034;-82
2022/07/26 01:38:34;;;;;;;15.20;8.95;;;;;;;;;;5034075;28;20037;-84
2022/07/26 01:41:00;;;;;;;14.15;9.35;;;;;;;;;;5051982;28;20064;-84
2022/07/26 01:43:26;;;;;;;14.27;9.65;;;;;;;;;;5053179;28;20067;-84
2022/07/26 01:45:52;;;;;;;14.63;8.75;;;;;;;;;;5034877;28;20030;-76
2022/07/26 01:48:18;;;;;;;12.98;9.15;;;;;;;;;;5034717;28;20477;-85
2022/07/26 01:50:44;;;;;;;10.25;7.93;;;;;;;;;;5035094;28;20037;-84
2022/07/26 01:53:10;;;;;;;12.73;9.73;;;;;;;;;;5035300;28;20481;-79
2022/07/26 01:55:36;;;;;;;12.60;9.18;;;;;;;;;;5034899;28;20429;-83
2022/07/26 01:58:04;;;;;;;11.13;9.23;;;;;;;;;;5035093;28;20108;-83
2022/07/26 02:00:30;;;;;;;14.20;9.43;;;;;;;;;;5033516;28;20030;-83
2022/07/26 02:02:56;;;;;;;13.48;9.25;;;;;;;;;;5053602;28;20029;-82
2022/07/26 02:05:23;;;;;;;11.60;8.25;;;;;;;;;;5053795;28;20112;-80
2022/07/26 02:07:49;;;;;;;15.05;9.70;;;;;;;;;;5054141;28;20029;-83
2022/07/26 02:10:15;;;;;;;17.85;10.93;;;;;;;;;;5053349;28;20025;-81
2022/07/26 02:12:41;;;;;;;18.10;9.77;;;;;;;;;;5053254;28;20041;-83
2022/07/26 02:15:08;;;;;;;12.63;9.90;;;;;;;;;;5053084;28;20411;-81
2022/07/26 02:17:34;;;;;;;14.85;10.18;;;;;;;;;;5053453;28;20468;-77
2022/07/26 02:20:00;;;;;;;15.13;9.85;;;;;;;;;;5053273;28;20028;-81
2022/07/26 02:22:26;;;;;;;11.93;9.02;;;;;;;;;;5053072;28;20082;-82
2022/07/26 02:24:52;;;;;;;17.90;9.88;;;;;;;;;;5053670;28;20037;-82
2022/07/26 02:27:18;;;;;;;15.95;10.93;;;;;;;;;;5053200;28;20033;-82
2022/07/26 02:29:45;;;;;;;16.42;10.55;;;;;;;;;;5053290;28;20131;-83
2022/07/26 02:32:11;;;;;;;15.85;9.57;;;;;;;;;;5052837;28;20499;-81
2022/07/26 02:34:37;;;;;;;16.95;11.10;;;;;;;;;;5051808;28;20060;-83
2022/07/26 02:37:03;;;;;;;20.75;11.40;;;;;;;;;;5053128;28;20044;-80
2022/07/26 02:39:29;;;;;;;20.52;11.20;;;;;;;;;;5053222;28;20033;-82
2022/07/26 02:41:57;;;;;;;17.75;11.23;;;;;;;;;;5045658;28;20048;-73
2022/07/26 02:44:24;;;;;;;17.60;10.23;;;;;;;;;;5033213;28;20136;-84
2022/07/26 02:46:51;;;;;;;16.17;10.18;;;;;;;;;;5033238;28;20053;-83
2022/07/26 02:49:18;;;;;;;22.23;11.48;;;;;;;;;;5039654;28;20587;-79
2022/07/26 02:51:44;;;;;;;21.42;12.57;;;;;;;;;;5054248;28;20052;-83
2022/07/26 02:54:11;;;;;;;19.33;11.23;;;;;;;;;;5052492;28;20091;-83
2022/07/26 02:56:38;;;;;;;19.80;11.55;;;;;;;;;;5052871;28;20041;-82
2022/07/26 02:59:04;;;;;;;24.73;11.32;;;;;;;;;;5053810;28;20115;-83
2022/07/26 03:01:30;;;;;;;14.88;10.95;;;;;;;;;;5053371;28;20078;-81
2022/07/26 03:03:56;;;;;;;20.23;11.57;;;;;;;;;;5053357;28;20037;-81
2022/07/26 03:06:22;;;;;;;15.02;11.38;;;;;;;;;;5053027;28;20479;-83
2022/07/26 03:08:48;;;;;;;21.15;12.00;;;;;;;;;;5052535;28;20471;-83
2022/07/26 03:11:14;;;;;;;19.88;12.20;;;;;;;;;;5052547;28;20039;-83
2022/07/26 03:13:40;;;;;;;13.20;11.02;;;;;;;;;;5052486;28;20051;-84
2022/07/26 03:16:07;;;;;;;12.65;10.70;;;;;;;;;;5044927;28;20484;-82
2022/07/26 03:18:33;;;;;;;16.65;11.90;;;;;;;;;;5032614;28;20045;-76
2022/07/26 03:20:59;;;;;;;18.13;11.52;;;;;;;;;;5037105;28;20110;-80
2022/07/26 03:23:25;;;;;;;16.88;11.07;;;;;;;;;;5045618;28;20061;-83
2022/07/26 03:25:51;;;;;;;15.70;11.43;;;;;;;;;;5032062;28;20052;-83
2022/07/26 03:28:16;;;;;;;18.33;11.25;;;;;;;;;;5031850;28;20029;-83
2022/07/26 03:30:42;;;;;;;13.57;11.15;;;;;;;;;;5032269;28;20048;-83
2022/07/26 03:33:08;;;;;;;12.98;10.48;;;;;;;;;;5036494;28;20047;-83
2022/07/26 03:35:34;;;;;;;17.17;12.43;;;;;;;;;;5067254;28;20041;-83
2022/07/26 03:38:00;;;;;;;16.42;11.40;;;;;;;;;;5052049;28;20033;-83
2022/07/26 03:40:27;;;;;;;16.05;11.02;;;;;;;;;;5052083;28;20047;-83
2022/07/26 03:42:53;;;;;;;17.73;11.57;;;;;;;;;;5052923;28;20041;-82
2022/07/26 03:45:19;;;;;;;14.82;10.02;;;;;;;;;;5051416;28;20374;-82
2022/07/26 03:47:45;;;;;;;22.17;10.95;;;;;;;;;;5051955;28;20029;-79
2022/07/26 03:50:12;;;;;;;15.88;11.68;;;;;;;;;;5050308;28;20501;-82
2022/07/26 03:52:38;;;;;;;17.92;11.35;;;;;;;;;;5051598;28;20087;-82
2022/07/26 03:56:27;;;;;;;15.63;11.20;;;;;;;;;;5035370;28;20037;-84
2022/07/26 03:57:51;;;;;;;15.95;11.80;;;;;;;;;;5031900;28;20041;-78
2022/07/26 04:00:17;;;;;;;17.05;10.20;;;;;;;;;;5032574;28;20113;-81
2022/07/26 04:02:43;;;;;;;20.25;11.38;;;;;;;;;;5032390;28;20516;-80
2022/07/26 04:05:10;;;;;;;23.92;14.23;;;;;;;;;;5031312;28;20034;-84
2022/07/26 04:07:43;;;;;;;20.65;11.10;;;;;;;;;;5031764;28;20038;-83
2022/07/26 04:10:10;;;;;;;18.63;11.55;;;;;;;;;;5047461;28;20055;-82
2022/07/26 04:12:36;;;;;;;17.50;12.10;;;;;;;;;;5051617;28;20071;-83
2022/07/26 04:15:02;;;;;;;21.95;12.23;;;;;;;;;;5052063;28;20395;-83
2022/07/26 04:17:28;;;;;;;19.52;11.30;;;;;;;;;;5048673;28;20029;-82
2022/07/26 04:19:54;;;;;;;18.77;12.27;;;;;;;;;;5051884;28;20384;-84
2022/07/26 04:22:20;;;;;;;17.58;11.55;;;;;;;;;;5052165;28;20045;-83
2022/07/26 04:24:46;;;;;;;16.13;9.80;;;;;;;;;;5052096;28;20108;-82
2022/07/26 04:27:12;;;;;;;19.98;9.93;;;;;;;;;;5051525;28;20040;-83
2022/07/26 04:29:38;;;;;;;14.50;9.43;;;;;;;;;;5051050;28;20036;-83
2022/07/26 04:32:04;;;;;;;16.95;10.38;;;;;;;;;;5051844;28;20037;-83
2022/07/26 04:34:30;;;;;;;20.60;11.43;;;;;;;;;;5051616;28;20108;-83
2022/07/26 04:36:56;;;;;;;13.48;9.93;;;;;;;;;;5051836;28;20104;-83
2022/07/26 04:39:23;;;;;;;20.33;10.88;;;;;;;;;;5051399;28;20115;-82
2022/07/26 04:41:49;;;;;;;16.15;9.48;;;;;;;;;;5051610;28;20033;-76
2022/07/26 04:44:15;;;;;;;17.15;12.32;;;;;;;;;;5047406;28;20041;-79
2022/07/26 04:46:41;;;;;;;21.95;11.55;;;;;;;;;;5031578;28;20049;-76
2022/07/26 04:49:07;;;;;;;24.88;12.10;;;;;;;;;;5031103;28;20090;-80
2022/07/26 04:51:33;;;;;;;19.85;10.35;;;;;;;;;;5031594;28;20041;-79
2022/07/26 04:53:59;;;;;;;13.73;9.35;;;;;;;;;;5032096;28;20041;-81
2022/07/26 04:56:25;;;;;;;19.70;8.98;;;;;;;;;;5032685;28;20041;-82
2022/07/26 04:58:51;;;;;;;13.70;9.30;;;;;;;;;;5034574;28;20063;-86
2022/07/26 05:01:17;;;;;;;13.30;9.00;;;;;;;;;;5035101;28;20116;-78
2022/07/26 05:03:43;;;;;;;12.15;8.70;;;;;;;;;;5034051;28;20029;-83
2022/07/26 05:06:08;;;;;;;12.48;9.40;;;;;;;;;;5034472;28;20021;-75
2022/07/26 05:08:34;;;;;;;16.90;9.80;;;;;;;;;;5031935;28;20032;-78
2022/07/26 05:11:00;;;;;;;15.18;9.23;;;;;;;;;;5034429;28;20022;-75
2022/07/26 05:13:26;;;;;;;22.85;10.88;;;;;;;;;;5033784;28;20038;-77
2022/07/26 05:15:52;;;;;;;20.08;9.90;;;;;;;;;;5033667;28;20544;-77
2022/07/26 05:18:18;;;;;;;18.55;9.30;;;;;;;;;;5033258;28;20038;-77
2022/07/26 05:20:44;;;;;;;14.80;9.68;;;;;;;;;;5033066;28;20431;-77
2022/07/26 05:23:10;;;;;;;27.73;11.82;;;;;;;;;;5034136;28;20060;-75
2022/07/26 05:25:37;;;;;;;16.42;10.77;;;;;;;;;;5034396;28;20071;-78
2022/07/26 05:28:03;;;;;;;23.60;10.68;;;;;;;;;;5034720;28;20033;-79
2022/07/26 05:30:29;;;;;;;42.85;11.90;;;;;;;;;;5034740;28;20093;-76
2022/07/26 05:32:55;;;;;;;18.17;10.65;;;;;;;;;;5033463;28;20044;-79
2022/07/26 05:35:21;;;;;;;15.27;10.43;;;;;;;;;;5034607;28;20041;-81
2022/07/26 05:37:47;;;;;;;19.30;10.02;;;;;;;;;;5042174;28;20576;-82
2022/07/26 05:40:14;;;;;;;17.55;9.95;;;;;;;;;;5054770;28;20044;-79
2022/07/26 05:42:40;;;;;;;19.13;10.73;;;;;;;;;;5050660;28;20047;-84
2022/07/26 05:45:06;;;;;;;23.05;10.23;;;;;;;;;;5035681;28;20071;-82
2022/07/26 05:47:32;;;;;;;27.08;9.75;;;;;;;;;;5054562;28;20113;-81
2022/07/26 05:49:58;;;;;;;16.27;9.40;;;;;;;;;;5054155;28;20059;-79
2022/07/26 05:52:24;;;;;;;15.63;10.05;;;;;;;;;;5053967;28;20033;-82
2022/07/26 05:54:50;;;;;;;14.57;8.27;;;;;;;;;;5053732;28;20040;-81
2022/07/26 05:57:16;;;;;;;12.38;8.35;;;;;;;;;;5052569;28;20025;-78
2022/07/26 05:59:42;;;;;;;10.35;8.38;;;;;;;;;;5039115;28;20041;-79
2022/07/26 06:02:08;;;;;;;11.68;9.13;;;;;;;;;;5034139;28;20033;-75
2022/07/26 06:04:34;;;;;;;15.75;8.27;;;;;;;;;;5033919;28;20029;-74
2022/07/26 06:07:00;;;;;;;13.02;8.32;;;;;;;;;;5044949;28;20029;-78
2022/07/26 06:09:26;;;;;;;15.02;8.45;;;;;;;;;;5042204;28;20057;-79
2022/07/26 06:11:52;;;;;;;15.45;8.57;;;;;;;;;;5043089;28;20041;-84
2022/07/26 06:14:19;;;;;;;10.93;8.60;;;;;;;;;;5035150;28;20040;-81
2022/07/26 06:16:46;;;;;;;11.82;8.82;;;;;;;;;;5034230;28;20038;-81
2022/07/26 06:19:12;;;;;;;17.02;8.77;;;;;;;;;;5034213;28;20053;-85
2022/07/26 06:21:38;;;;;;;17.58;8.60;;;;;;;;;;5034565;28;20044;-79
2022/07/26 06:24:04;;;;;;;12.98;9.40;;;;;;;;;;5034984;28;20049;-76
2022/07/26 06:26:30;;;;;;;12.65;9.27;;;;;;;;;;5034526;28;20029;-79
2022/07/26 06:28:56;;;;;;;12.65;8.05;;;;;;;;;;5036224;28;20025;-79
2022/07/26 06:31:22;;;;;;;14.10;8.10;;;;;;;;;;5040135;28;20056;-82
2022/07/26 06:33:49;;;;;;;12.65;8.35;;;;;;;;;;5044467;28;20053;-80
2022/07/26 06:36:15;;;;;;;12.75;8.43;;;;;;;;;;5032729;28;20033;-78
2022/07/26 06:38:41;;;;;;;15.43;8.32;;;;;;;;;;5033062;28;20384;-81
2022/07/26 06:41:07;;;;;;;10.60;8.20;;;;;;;;;;5033639;28;20428;-81
2022/07/26 06:43:33;;;;;;;10.05;7.78;;;;;;;;;;5033331;28;20033;-79
2022/07/26 06:46:00;;;;;;;12.52;8.95;;;;;;;;;;5032438;28;20033;-80
2022/07/26 06:48:25;;;;;;;12.30;8.18;;;;;;;;;;5053767;28;20158;-78
2022/07/26 06:50:52;;;;;;;11.38;7.90;;;;;;;;;;5051839;28;20045;-78
2022/07/26 06:53:18;;;;;;;9.82;7.63;;;;;;;;;;5048331;28;20399;-86
2022/07/26 06:55:44;;;;;;;16.38;9.15;;;;;;;;;;5033257;28;20025;-81
2022/07/26 06:58:10;;;;;;;12.45;8.98;;;;;;;;;;5042371;28;20138;-84
2022/07/26 07:00:35;;;;;;;12.48;8.38;;;;;;;;;;5044212;28;20029;-76
2022/07/26 07:03:01;;;;;;;14.48;8.55;;;;;;;;;;5052561;28;20025;-82
2022/07/26 07:05:27;;;;;;;13.52;8.45;;;;;;;;;;5052390;28;20033;-79
2022/07/26 07:07:53;;;;;;;15.25;8.18;;;;;;;;;;5052638;28;20079;-83
2022/07/26 07:10:19;;;;;;;13.75;8.68;;;;;;;;;;5043965;28;20061;-82
2022/07/26 07:12:45;;;;;;;11.23;8.25;;;;;;;;;;5032981;28;20041;-81
2022/07/26 07:15:12;;;;;;;13.95;7.93;;;;;;;;;;5031987;28;20379;-81
2022/07/26 07:17:38;;;;;;;9.73;7.85;;;;;;;;;;5046225;28;20059;-81
2022/07/26 07:20:04;;;;;;;11.82;8.20;;;;;;;;;;5034889;28;20068;-79
2022/07/26 07:22:31;;;;;;;10.73;7.65;;;;;;;;;;5031962;28;20034;-81
2022/07/26 07:24:57;;;;;;;11.10;7.65;;;;;;;;;;5030358;28;20115;-81
2022/07/26 07:27:23;;;;;;;9.77;7.93;;;;;;;;;;5044040;28;20459;-85
2022/07/26 07:29:49;;;;;;;9.18;8.27;;;;;;;;;;5037553;28;20075;-85
2022/07/26 07:32:15;;;;;;;12.25;8.02;;;;;;;;;;5052632;28;20044;-79
2022/07/26 07:34:41;;;;;;;12.07;8.60;;;;;;;;;;5041435;28;20060;-83
2022/07/26 07:37:07;;;;;;;12.10;8.50;;;;;;;;;;5036133;28;20045;-79
2022/07/26 07:39:33;;;;;;;9.73;7.88;;;;;;;;;;5030824;28;20550;-81
2022/07/26 07:41:59;;;;;;;12.48;8.63;;;;;;;;;;5035121;28;20037;-81
2022/07/26 07:44:25;;;;;;;11.57;7.75;;;;;;;;;;5048320;28;20109;-79
2022/07/26 07:46:50;;;;;;;12.48;8.05;;;;;;;;;;5034500;28;20022;-79
2022/07/26 07:49:17;;;;;;;10.00;8.25;;;;;;;;;;5033400;28;20068;-83
2022/07/26 07:51:42;;;;;;;9.88;8.23;;;;;;;;;;5031311;28;21160;-79
2022/07/26 07:54:08;;;;;;;11.52;8.40;;;;;;;;;;5032755;28;20076;-82
2022/07/26 07:56:34;;;;;;;11.88;8.40;;;;;;;;;;5033567;28;20033;-79
2022/07/26 07:59:00;;;;;;;10.85;8.25;;;;;;;;;;5031766;28;20551;-79
2022/07/26 08:01:26;;;;;;;10.50;8.48;;;;;;;;;;5045029;28;20172;-80
2022/07/26 08:03:52;;;;;;;12.60;8.23;;;;;;;;;;5030626;28;20022;-78
2022/07/26 08:06:18;;;;;;;14.13;9.05;;;;;;;;;;5037577;28;20131;-81
2022/07/26 08:08:44;;;;;;;13.13;8.90;;;;;;;;;;5044933;28;20036;-81
2022/07/26 08:11:10;;;;;;;12.55;8.48;;;;;;;;;;5035060;28;20040;-86
2022/07/26 08:13:36;;;;;;;10.60;8.77;;;;;;;;;;5041128;28;20025;-82
2022/07/26 08:16:04;;;;;;;10.05;8.43;;;;;;;;;;5044087;28;20060;-81
2022/07/26 08:18:30;;;;;;;12.18;8.52;;;;;;;;;;5042729;28;20036;-79
2022/07/26 08:20:56;;;;;;;12.00;8.05;;;;;;;;;;5056470;28;20082;-84
2022/07/26 08:23:22;;;;;;;11.32;8.55;;;;;;;;;;5052575;28;20041;-78
2022/07/26 08:25:49;;;;;;;14.88;8.68;;;;;;;;;;5046907;28;20477;-80
2022/07/26 08:28:15;;;;;;;14.48;8.77;;;;;;;;;;5037612;28;20080;-82
2022/07/26 08:30:41;;;;;;;13.23;9.43;;;;;;;;;;5035601;28;20077;-79
2022/07/26 08:33:08;;;;;;;10.18;9.05;;;;;;;;;;5046155;28;20040;-82
2022/07/26 08:35:33;;;;;;;10.80;8.50;;;;;;;;;;5036807;28;20034;-82
2022/07/26 08:37:59;;;;;;;12.45;9.10;;;;;;;;;;5046049;28;20120;-79
2022/07/26 08:40:25;;;;;;;10.27;8.67;;;;;;;;;;5057051;28;20025;-79
2022/07/26 08:42:53;;;;;;;12.50;8.95;;;;;;;;;;5057621;28;20096;-82
2022/07/26 08:45:22;;;;;;;11.55;9.02;;;;;;;;;;5055287;28;20053;-78
2022/07/26 08:47:48;;;;;;;12.70;8.82;;;;;;;;;;5042277;28;20064;-79
2022/07/26 08:50:14;;;;;;;11.00;8.93;;;;;;;;;;5048278;28;20036;-81
2022/07/26 08:52:41;;;;;;;14.50;10.65;;;;;;;;;;5041774;28;20388;-82
2022/07/26 08:55:07;;;;;;;14.05;8.80;;;;;;;;;;5038070;28;20081;-81
2022/07/26 08:57:33;;;;;;;14.57;9.77;;;;;;;;;;5035971;28;20511;-80
2022/07/26 09:00:24;;;;;;;12.30;9.20;;;;;;;;;;5035257;28;20044;-80
2022/07/26 09:02:51;;;;;;;10.73;8.95;;;;;;;;;;5036547;28;20064;-82
2022/07/26 09:05:27;;;;;;;9.77;8.77;;;;;;;;;;5039977;28;20064;-84
2022/07/26 09:07:53;;;;;;;13.25;9.43;;;;;;;;;;5046116;28;20033;-82
2022/07/26 09:10:18;;;;;;;11.68;8.85;;;;;;;;;;5037379;28;20036;-80
2022/07/26 09:12:52;;;;;;;10.45;8.77;;;;;;;;;;5037161;28;20033;-80
2022/07/26 09:15:25;;;;;;;12.43;9.55;;;;;;;;;;5050512;28;20037;-77
2022/07/26 09:17:55;;;;;;;10.15;8.98;;;;;;;;;;5047735;28;20036;-81
2022/07/26 09:20:29;;;;;;;16.52;8.98;;;;;;;;;;5052941;28;20503;-77
2022/07/26 09:23:02;;;;;;;11.38;8.93;;;;;;;;;;5052639;28;20029;-77
2022/07/26 09:25:31;;;;;;;11.90;9.18;;;;;;;;;;5052890;28;20058;-79
2022/07/26 09:27:58;;;;;;;12.75;9.18;;;;;;;;;;5053479;28;20476;-77
2022/07/26 09:30:26;;;;;;;12.70;9.13;;;;;;;;;;5053017;28;20198;-79
2022/07/26 09:32:58;;;;;;;12.18;8.73;;;;;;;;;;5053172;28;20029;-78
2022/07/26 09:35:25;;;;;;;10.35;8.57;;;;;;;;;;5054365;28;20033;-80
2022/07/26 09:37:50;;;;;;;10.13;9.13;;;;;;;;;;5053603;28;20036;-80
2022/07/26 09:40:18;;;;;;;11.20;9.02;;;;;;;;;;5053418;28;20029;-80
2022/07/26 09:43:01;;;;;;;11.35;8.68;;;;;;;;;;5042305;28;20038;-79
2022/07/26 09:45:29;;;;;;;9.88;8.45;;;;;;;;;;5033146;28;20476;-76
2022/07/26 09:47:55;;;;;;;14.57;8.80;;;;;;;;;;5033420;28;20036;-77
2022/07/26 09:50:24;;;;;;;11.05;8.73;;;;;;;;;;5032233;28;20522;-79
2022/07/26 09:53:08;;;;;;;9.75;8.75;;;;;;;;;;5032855;28;20140;-79
2022/07/26 09:55:43;;;;;;;10.82;9.20;;;;;;;;;;5029851;28;20037;-78
2022/07/26 09:58:12;;;;;;;10.27;8.88;;;;;;;;;;5033776;28;20039;-79
2022/07/26 10:00:39;;;;;;;10.85;9.60;;;;;;;;;;5032816;28;20063;-79
2022/07/26 10:03:05;;;;;;;11.73;8.90;;;;;;;;;;5051930;28;20037;-80
2022/07/26 10:05:32;;;;;;;11.20;9.02;;;;;;;;;;5050722;28;20893;-75
2022/07/26 10:07:59;;;;;;;10.90;8.30;;;;;;;;;;5038170;28;20064;-82
2022/07/26 10:10:37;;;;;;;13.45;8.73;;;;;;;;;;5037574;28;20057;-83
2022/07/26 10:13:05;;;;;;;10.73;8.90;;;;;;;;;;5034301;28;20036;-80
2022/07/26 10:15:44;;;;;;;13.63;8.45;;;;;;;;;;5037679;28;20029;-78
2022/07/26 10:18:36;;;;;;;14.05;8.23;;;;;;;;;;5053522;28;20083;-81
2022/07/26 10:21:24;;;;;;;12.57;8.98;;;;;;;;;;5048838;28;20399;-81
2022/07/26 10:24:00;;;;;;;10.55;8.40;;;;;;;;;;5031361;28;20045;-81
2022/07/26 10:26:32;;;;;;;12.63;9.25;;;;;;;;;;5031187;28;20041;-79
2022/07/26 10:29:16;;;;;;;13.10;9.30;;;;;;;;;;5032402;28;20045;-83
2022/07/26 10:31:44;;;;;;;12.35;8.50;;;;;;;;;;5032115;28;20289;-75
2022/07/26 10:34:29;;;;;;;12.55;8.73;;;;;;;;;;5048492;28;20025;-81
2022/07/26 10:37:00;;;;;;;14.90;8.40;;;;;;;;;;5052588;28;20107;-82
2022/07/26 10:39:27;;;;;;;12.27;8.80;;;;;;;;;;5052713;28;20025;-82
2022/07/26 10:42:06;;;;;;;13.55;8.77;;;;;;;;;;5052462;28;20036;-76
2022/07/26 10:44:40;;;;;;;15.68;8.50;;;;;;;;;;5052396;28;20037;-83
2022/07/26 10:47:06;;;;;;;10.68;8.40;;;;;;;;;;5052602;28;20310;-83
2022/07/26 10:49:56;;;;;;;13.45;9.15;;;;;;;;;;5042760;28;20035;-82
2022/07/26 10:52:24;;;;;;;10.55;8.88;;;;;;;;;;5030423;28;20469;-79
2022/07/26 10:54:58;;;;;;;13.10;9.20;;;;;;;;;;5031562;28;20481;-82
2022/07/26 10:57:30;;;;;;;13.05;8.77;;;;;;;;;;5033937;28;20040;-81
2022/07/26 10:59:57;;;;;;;9.98;8.88;;;;;;;;;;5032289;28;20030;-80
2022/07/26 11:02:27;;;;;;;12.75;8.45;;;;;;;;;;5033865;28;20086;-77
2022/07/26 11:05:12;;;;;;;16.45;11.02;;;;;;;;;;5033765;28;20105;-79
2022/07/26 11:08:18;;;;;;;14.82;9.52;;;;;;;;;;5034132;28;20129;-81
2022/07/26 11:10:46;;;;;;;12.05;8.80;;;;;;;;;;5030561;28;20052;-78
2022/07/26 11:13:24;;;;;;;11.88;8.63;;;;;;;;;;5033562;28;20087;-79
2022/07/26 11:15:58;;;;;;;13.60;9.15;;;;;;;;;;5033368;28;20436;-75
2022/07/26 11:18:29;;;;;;;10.90;8.68;;;;;;;;;;5033725;28;20108;-79
2022/07/26 11:20:57;;;;;;;9.80;8.32;;;;;;;;;;5033268;28;20127;-79
2022/07/26 11:23:27;;;;;;;8.73;7.82;;;;;;;;;;5033346;28;20079;-79
2022/07/26 11:26:10;;;;;;;12.07;9.55;;;;;;;;;;5041690;28;20399;-80
2022/07/26 11:28:54;;;;;;;15.20;12.25;;;;;;;;;;5053251;28;20029;-81
2022/07/26 11:31:24;;;;;;;18.42;13.48;;;;;;;;;;5053292;28;20053;-83
2022/07/26 11:33:52;;;;;;;13.93;9.90;;;;;;;;;;5053074;28;20045;-82
2022/07/26 11:36:33;;;;;;;11.60;8.68;;;;;;;;;;5052780;28;20037;-79
2022/07/26 11:39:01;;;;;;;12.27;9.43;;;;;;;;;;5049513;28;20087;-79
2022/07/26 11:41:28;;;;;;;12.45;8.43;;;;;;;;;;5053090;28;20116;-77
2022/07/26 11:43:55;;;;;;;11.93;8.80;;;;;;;;;;5052684;28;20051;-79
2022/07/26 11:46:23;;;;;;;10.80;8.52;;;;;;;;;;5052966;28;20025;-80
2022/07/26 11:48:51;;;;;;;13.35;9.07;;;;;;;;;;5053196;28;20083;-75
2022/07/26 11:51:19;;;;;;;14.75;8.88;;;;;;;;;;5051777;28;20037;-71
2022/07/26 11:53:46;;;;;;;11.75;8.90;;;;;;;;;;5051929;28;20025;-75
2022/07/26 11:56:22;;;;;;;11.90;8.95;;;;;;;;;;5049873;28;20033;-73
2022/07/26 11:58:50;;;;;;;11.68;8.43;;;;;;;;;;5053021;28;20025;-74
2022/07/26 12:01:20;;;;;;;11.60;8.70;;;;;;;;;;5053400;28;20033;-73
2022/07/26 12:03:51;;;;;;;11.20;9.18;;;;;;;;;;5051984;28;20163;-73
2022/07/26 12:06:19;;;;;;;11.30;8.77;;;;;;;;;;5054765;28;20060;-74
2022/07/26 12:08:57;;;;;;;14.25;8.93;;;;;;;;;;5056042;28;20029;-73
2022/07/26 12:11:35;;;;;;;11.82;7.90;;;;;;;;;;5056012;28;20029;-73
2022/07/26 12:14:02;;;;;;;12.38;8.38;;;;;;;;;;5056103;28;20029;-79
2022/07/26 12:16:37;;;;;;;15.18;8.48;;;;;;;;;;5055424;28;20083;-81
2022/07/26 12:19:04;;;;;;;9.10;8.20;;;;;;;;;;5056186;28;20033;-80
2022/07/26 12:21:43;;;;;;;8.88;7.93;;;;;;;;;;5055854;28;20467;-75
2022/07/26 12:24:11;;;;;;;11.05;8.65;;;;;;;;;;5055701;28;20029;-73
2022/07/26 12:26:38;;;;;;;12.52;8.65;;;;;;;;;;5049379;28;20117;-71
2022/07/26 12:32:05;;;;;;;10.05;8.57;;;;;;;;;;5055683;28;20361;-76
2022/07/26 12:34:32;;;;;;;14.35;8.48;;;;;;;;;;5039144;28;20048;-71
2022/07/26 12:37:12;;;;;;;10.68;8.68;;;;;;;;;;5035286;28;20590;-71
2022/07/26 12:39:40;;;;;;;10.52;8.55;;;;;;;;;;5035420;28;20116;-70
2022/07/26 12:42:20;;;;;;;10.38;8.38;;;;;;;;;;5034862;28;20042;-72
2022/07/26 12:44:46;;;;;;;12.32;7.90;;;;;;;;;;5035256;28;20029;-71
2022/07/26 12:47:12;;;;;;;9.25;8.30;;;;;;;;;;5035342;28;20025;-75
2022/07/26 12:49:38;;;;;;;9.75;8.20;;;;;;;;;;5035153;28;20056;-74
2022/07/26 12:52:04;;;;;;;10.18;8.13;;;;;;;;;;5035234;28;20480;-72
2022/07/26 12:54:30;;;;;;;9.27;7.32;;;;;;;;;;5034433;28;20032;-70
2022/07/26 12:56:56;;;;;;;10.93;7.60;;;;;;;;;;5034915;28;20104;-74
2022/07/26 12:59:22;;;;;;;8.40;7.50;;;;;;;;;;5035027;28;20385;-73
2022/07/26 13:01:48;;;;;;;13.90;8.55;;;;;;;;;;5035512;28;20080;-71
2022/07/26 13:04:14;;;;;;;9.50;7.53;;;;;;;;;;5034786;28;20102;-70
2022/07/26 13:06:40;;;;;;;14.75;8.20;;;;;;;;;;5036687;28;20059;-70
2022/07/26 13:09:06;;;;;;;9.77;8.43;;;;;;;;;;5035790;28;20033;-73
2022/07/26 13:11:32;;;;;;;9.32;8.35;;;;;;;;;;5035144;28;20038;-74
2022/07/26 13:13:58;;;;;;;17.30;8.25;;;;;;;;;;5035015;28;20183;-70
2022/07/26 13:16:24;;;;;;;11.13;7.97;;;;;;;;;;5052345;28;20496;-72
2022/07/26 13:18:50;;;;;;;10.20;7.93;;;;;;;;;;5044784;28;20064;-77
2022/07/26 13:21:16;;;;;;;9.70;8.10;;;;;;;;;;5053578;28;20519;-72
2022/07/26 13:23:42;;;;;;;9.40;7.68;;;;;;;;;;5054882;28;20033;-72
2022/07/26 13:26:08;;;;;;;9.45;7.93;;;;;;;;;;5053449;28;20480;-72
2022/07/26 13:28:34;;;;;;;12.25;7.70;;;;;;;;;;5054474;28;20059;-73
2022/07/26 13:31:01;;;;;;;13.75;8.20;;;;;;;;;;5054439;28;20127;-71
2022/07/26 13:33:27;;;;;;;9.68;7.47;;;;;;;;;;5039112;28;20034;-75
2022/07/26 13:35:53;;;;;;;9.45;7.95;;;;;;;;;;5034668;28;20538;-73
2022/07/26 13:38:19;;;;;;;9.23;8.00;;;;;;;;;;5034454;28;20061;-73
2022/07/26 13:40:45;;;;;;;10.13;7.78;;;;;;;;;;5034410;28;20053;-78
2022/07/26 13:43:11;;;;;;;12.70;7.65;;;;;;;;;;5034496;28;20111;-77
2022/07/26 13:45:37;;;;;;;11.07;8.20;;;;;;;;;;5045074;28;20041;-81
2022/07/26 13:48:03;;;;;;;11.52;8.07;;;;;;;;;;5045419;28;20052;-72
2022/07/26 13:50:29;;;;;;;11.30;8.07;;;;;;;;;;5032696;28;20108;-77
2022/07/26 13:52:55;;;;;;;9.70;8.10;;;;;;;;;;5033387;28;20432;-78
2022/07/26 13:55:21;;;;;;;8.80;7.65;;;;;;;;;;5034655;28;20076;-74
2022/07/26 13:57:47;;;;;;;10.73;8.27;;;;;;;;;;5035362;28;20033;-79
2022/07/26 14:00:13;;;;;;;10.40;7.80;;;;;;;;;;5033346;28;20510;-76
2022/07/26 14:02:39;;;;;;;9.85;8.13;;;;;;;;;;5034658;28;20084;-80
2022/07/26 14:05:07;;;;;;;10.70;7.55;;;;;;;;;;5036337;28;20439;-80
2022/07/26 14:07:34;;;;;;;9.30;7.45;;;;;;;;;;5051039;28;20029;-84
2022/07/26 14:10:00;;;;;;;10.98;7.78;;;;;;;;;;5034832;28;20087;-75
2022/07/26 14:12:26;;;;;;;9.70;7.22;;;;;;;;;;5034524;28;20087;-80
2022/07/26 14:14:52;;;;;;;9.23;7.40;;;;;;;;;;5035522;28;20033;-81
2022/07/26 14:17:19;;;;;;;12.88;7.38;;;;;;;;;;5034560;28;20550;-76
2022/07/26 14:19:45;;;;;;;16.65;7.53;;;;;;;;;;5034230;28;20105;-77
2022/07/26 14:22:12;;;;;;;10.48;6.88;;;;;;;;;;5034240;28;20396;-79
2022/07/26 14:24:38;;;;;;;9.90;8.20;;;;;;;;;;5034919;28;20333;-78
2022/07/26 14:27:04;;;;;;;8.38;7.47;;;;;;;;;;5034397;28;20112;-79
2022/07/26 14:29:30;;;;;;;9.85;7.53;;;;;;;;;;5033689;28;20542;-75
2022/07/26 14:31:56;;;;;;;9.23;6.97;;;;;;;;;;5033920;28;20033;-75
2022/07/26 14:34:22;;;;;;;7.90;7.10;;;;;;;;;;5033594;28;20084;-76